Gowganda, Canada
Current Conditions -  °F | °C
As of 7:00 AM on Thursday 23 Oct 2014 (Local Time) from CYXR Reporting Station
Clear Clear  
Wind Chill: 25°   Ceiling: Unl
Heat Index: 25°   Visibility: 9mi
Dew Point: 25°   Wind: 2mph
Humidity: 100%   Direction: 290°WNW
Pressure: 30.25"   Gusts: NA
Location:  47.65°N, 80.78°W
Report Text: CYXR 231100Z AUTO 29002KT 9SM CLR M04/M04 A3025 RMK SLP254
Loading
Personal Weather Stations






























Interactive Weather Map
Tropical Storm Tracking
New forecast layout! Learn more

10-Day Weather Forecast

Advertisements
Track Severe Weather on mobile